createdAt,value
2022-12-26T00:00:56.650Z,100.00
2022-12-26T00:03:35.528Z,100.00
2022-12-26T00:06:04.502Z,100.00
2022-12-26T00:08:33.407Z,100.00
2022-12-26T00:11:00.280Z,100.00
2022-12-26T00:13:39.543Z,100.00
2022-12-26T00:16:12.587Z,100.00
2022-12-26T00:18:40.199Z,100.00
2022-12-26T00:21:10.003Z,100.00
2022-12-26T00:23:38.335Z,100.00
2022-12-26T00:26:12.135Z,100.00
2022-12-26T00:28:39.138Z,100.00
2022-12-26T00:31:08.617Z,100.00
2022-12-26T00:33:37.260Z,100.00
2022-12-26T00:36:11.478Z,100.00
2022-12-26T00:38:40.579Z,100.00
2022-12-26T00:41:09.436Z,100.00
2022-12-26T00:43:36.984Z,100.00
2022-12-26T00:46:05.348Z,100.00
2022-12-26T00:48:32.356Z,100.00
2022-12-26T00:51:00.231Z,100.00
2022-12-26T00:53:27.772Z,100.00
2022-12-26T00:55:56.087Z,100.00
2022-12-26T00:58:23.901Z,100.00
2022-12-26T01:00:51.431Z,100.00
2022-12-26T01:03:19.195Z,100.00
2022-12-26T01:05:49.657Z,100.00
2022-12-26T01:08:21.850Z,100.00
2022-12-26T01:10:52.042Z,100.00
2022-12-26T01:13:19.149Z,100.00
2022-12-26T01:15:53.469Z,100.00
2022-12-26T01:18:20.827Z,100.00
2022-12-26T01:20:48.940Z,100.00
2022-12-26T01:23:16.829Z,100.00
2022-12-26T01:26:17.201Z,100.00
2022-12-26T01:28:31.059Z,100.00
2022-12-26T01:31:03.405Z,100.00
2022-12-26T01:33:32.049Z,100.00
2022-12-26T01:35:59.504Z,100.00
2022-12-26T01:38:26.541Z,100.00
2022-12-26T01:41:13.449Z,100.00
2022-12-26T01:43:57.587Z,100.00
2022-12-26T01:46:33.874Z,100.00
2022-12-26T01:49:08.667Z,100.00
2022-12-26T01:51:41.825Z,100.00
2022-12-26T01:54:39.125Z,100.00
2022-12-26T01:57:02.604Z,100.00
2022-12-26T01:59:32.680Z,100.00
2022-12-26T02:02:00.834Z,100.00
2022-12-26T02:04:54.054Z,100.00
2022-12-26T02:07:23.175Z,100.00
2022-12-26T02:09:51.093Z,100.00
2022-12-26T02:12:34.833Z,100.00
2022-12-26T02:15:16.528Z,100.00
2022-12-26T02:17:44.137Z,100.00
2022-12-26T02:20:22.123Z,100.00
2022-12-26T02:23:10.112Z,100.00
2022-12-26T02:25:42.907Z,100.00
2022-12-26T02:28:12.960Z,100.00
2022-12-26T02:30:52.272Z,100.00
2022-12-26T02:33:36.686Z,100.00
2022-12-26T02:36:09.578Z,100.00
2022-12-26T02:39:45.542Z,100.00
2022-12-26T02:42:09.434Z,100.00
2022-12-26T02:45:06.240Z,100.00
2022-12-26T02:47:48.652Z,100.00
2022-12-26T02:50:42.845Z,100.00
2022-12-26T02:53:46.603Z,100.00
2022-12-26T02:56:40.379Z,100.00
2022-12-26T02:59:55.865Z,100.00
2022-12-26T03:02:56.255Z,100.00
2022-12-26T03:05:55.048Z,100.00
2022-12-26T03:09:05.218Z,100.00
2022-12-26T03:11:57.762Z,100.00
2022-12-26T03:14:29.632Z,100.00
2022-12-26T03:17:20.427Z,100.00
2022-12-26T03:19:59.310Z,100.00
2022-12-26T03:22:35.147Z,100.00
2022-12-26T03:25:47.766Z,100.00
2022-12-26T03:28:24.763Z,100.00
2022-12-26T03:30:53.393Z,100.00
2022-12-26T03:33:40.705Z,100.00
2022-12-26T03:36:43.081Z,100.00
2022-12-26T03:39:45.452Z,100.00
2022-12-26T03:43:00.218Z,100.00
2022-12-26T03:46:21.337Z,100.00
2022-12-26T03:49:14.859Z,100.00
2022-12-26T03:52:18.575Z,100.00
2022-12-26T03:55:29.372Z,100.00
2022-12-26T03:58:30.995Z,100.00
2022-12-26T04:01:21.435Z,100.00
2022-12-26T04:04:08.900Z,100.00
2022-12-26T04:07:08.887Z,100.00
2022-12-26T04:10:16.283Z,100.00
2022-12-26T04:13:04.166Z,100.00
2022-12-26T04:16:16.285Z,100.00
2022-12-26T04:19:19.821Z,100.00
2022-12-26T04:22:33.050Z,100.00
2022-12-26T04:25:49.576Z,100.00
2022-12-26T04:28:39.393Z,100.00
2022-12-26T04:31:54.625Z,100.00
2022-12-26T04:35:00.115Z,100.00
2022-12-26T04:37:48.875Z,100.00
2022-12-26T04:40:40.835Z,100.00
2022-12-26T04:43:46.851Z,100.00
2022-12-26T04:46:17.148Z,100.00
2022-12-26T04:49:06.068Z,100.00
2022-12-26T04:51:34.954Z,100.00
2022-12-26T04:54:02.863Z,100.00
2022-12-26T04:56:29.839Z,100.00
2022-12-26T04:58:57.360Z,100.00
2022-12-26T05:01:43.475Z,100.00
2022-12-26T05:04:32.829Z,100.00
2022-12-26T05:07:21.673Z,100.00
2022-12-26T05:09:50.930Z,100.00
2022-12-26T05:12:17.998Z,100.00
2022-12-26T05:14:45.046Z,100.00
2022-12-26T05:17:32.495Z,100.00
2022-12-26T05:20:18.132Z,100.00
2022-12-26T05:23:05.063Z,100.00
2022-12-26T05:25:56.051Z,100.00
2022-12-26T05:28:41.240Z,100.00
2022-12-26T05:31:17.203Z,100.00
2022-12-26T05:34:02.912Z,100.00
2022-12-26T05:36:35.668Z,100.00
2022-12-26T05:39:03.972Z,100.00
2022-12-26T05:41:31.256Z,100.00
2022-12-26T05:43:58.252Z,100.00
2022-12-26T05:46:25.291Z,100.00
2022-12-26T05:48:52.398Z,100.00
2022-12-26T05:51:19.622Z,100.00
2022-12-26T05:53:47.941Z,100.00
2022-12-26T05:56:18.397Z,100.00
2022-12-26T05:58:46.127Z,100.00
2022-12-26T06:01:19.155Z,100.00
2022-12-26T06:03:48.581Z,100.00
2022-12-26T06:06:16.923Z,100.00
2022-12-26T06:08:48.389Z,100.00
2022-12-26T06:11:16.297Z,100.00
2022-12-26T06:13:44.885Z,100.00
2022-12-26T06:16:16.129Z,100.00
2022-12-26T06:18:43.725Z,100.00
2022-12-26T06:21:14.507Z,100.00
2022-12-26T06:23:41.575Z,100.00
2022-12-26T06:26:09.758Z,100.00
2022-12-26T06:28:36.906Z,100.00
2022-12-26T06:31:08.708Z,100.00
2022-12-26T06:33:37.045Z,100.00
2022-12-26T06:36:18.661Z,100.00
2022-12-26T06:38:46.630Z,100.00
2022-12-26T06:41:17.355Z,100.00
2022-12-26T06:43:44.909Z,100.00
2022-12-26T06:46:15.495Z,100.00
2022-12-26T06:48:43.224Z,100.00
2022-12-26T06:51:16.206Z,100.00
2022-12-26T06:53:43.349Z,100.00
2022-12-26T06:56:13.826Z,100.00
2022-12-26T06:58:41.840Z,100.00
2022-12-26T07:01:12.485Z,100.00
2022-12-26T07:03:46.636Z,100.00
2022-12-26T07:06:27.339Z,100.00
2022-12-26T07:09:00.600Z,100.00
2022-12-26T07:11:31.048Z,100.00
2022-12-26T07:13:58.605Z,100.00
2022-12-26T07:16:28.899Z,100.00
2022-12-26T07:18:57.980Z,100.00
2022-12-26T07:21:26.199Z,100.00
2022-12-26T07:23:54.618Z,100.00
2022-12-26T07:26:23.356Z,100.00
2022-12-26T07:28:58.495Z,100.00
2022-12-26T07:31:27.651Z,100.00
2022-12-26T07:33:55.951Z,100.00
2022-12-26T07:36:24.495Z,100.00
2022-12-26T07:38:51.721Z,100.00
2022-12-26T07:41:37.472Z,100.00
2022-12-26T07:44:05.662Z,100.00
2022-12-26T07:46:33.626Z,100.00
2022-12-26T07:49:01.175Z,100.00
2022-12-26T07:51:28.363Z,100.00
2022-12-26T07:53:55.404Z,100.00
2022-12-26T07:56:22.393Z,100.00
2022-12-26T07:58:50.628Z,100.00
2022-12-26T08:01:17.885Z,100.00
2022-12-26T08:03:47.970Z,100.00
2022-12-26T08:06:15.130Z,100.00
2022-12-26T08:08:48.513Z,100.00
2022-12-26T08:11:22.269Z,100.00
2022-12-26T08:13:51.026Z,100.00
2022-12-26T08:16:19.939Z,100.00
2022-12-26T08:18:47.085Z,100.00
2022-12-26T08:21:14.074Z,100.00
2022-12-26T08:23:41.335Z,100.00
2022-12-26T08:26:11.748Z,100.00
2022-12-26T08:28:42.124Z,100.00
2022-12-26T08:31:10.047Z,100.00
2022-12-26T08:33:37.101Z,100.00
2022-12-26T08:36:06.775Z,100.00
2022-12-26T08:38:34.016Z,100.00
2022-12-26T08:41:01.524Z,100.00
2022-12-26T08:44:03.067Z,100.00
2022-12-26T08:46:18.037Z,100.00
2022-12-26T08:48:46.706Z,100.00
2022-12-26T08:51:25.451Z,100.00
2022-12-26T08:53:55.282Z,100.00
2022-12-26T08:56:25.529Z,100.00
2022-12-26T08:58:52.727Z,100.00
2022-12-26T09:01:23.115Z,100.00
2022-12-26T09:03:55.257Z,100.00
2022-12-26T09:06:22.394Z,100.00
2022-12-26T09:08:50.459Z,100.00
2022-12-26T09:11:26.464Z,100.00
2022-12-26T09:13:55.542Z,100.00
2022-12-26T09:16:27.064Z,100.00
2022-12-26T09:18:56.780Z,100.00
2022-12-26T09:21:24.794Z,100.00
2022-12-26T09:24:00.647Z,100.00
2022-12-26T09:26:29.308Z,100.00
2022-12-26T09:28:56.999Z,100.00
2022-12-26T09:31:27.523Z,100.00
2022-12-26T09:33:55.186Z,100.00
2022-12-26T09:36:26.832Z,100.00
2022-12-26T09:38:56.387Z,100.00
2022-12-26T09:41:35.657Z,100.00
2022-12-26T09:44:26.850Z,100.00
2022-12-26T09:47:18.832Z,100.00
2022-12-26T09:50:00.152Z,100.00
2022-12-26T09:52:48.188Z,100.00
2022-12-26T09:55:36.960Z,100.00
2022-12-26T09:58:28.395Z,99.92
2022-12-26T10:01:09.597Z,99.84
2022-12-26T10:03:44.024Z,99.65
2022-12-26T10:06:26.275Z,98.98
2022-12-26T10:09:17.858Z,98.71
2022-12-26T10:12:10.333Z,98.18
2022-12-26T10:14:43.849Z,98.19
2022-12-26T10:17:23.740Z,97.54
2022-12-26T10:20:11.061Z,97.14
2022-12-26T10:22:56.929Z,97.27
2022-12-26T10:25:38.863Z,96.93
2022-12-26T10:28:27.048Z,97.02
2022-12-26T10:30:58.117Z,97.30
2022-12-26T10:33:36.681Z,96.83
2022-12-26T10:36:04.003Z,96.69
2022-12-26T10:38:42.142Z,96.53
2022-12-26T10:41:25.895Z,96.41
2022-12-26T10:43:54.325Z,96.13
2022-12-26T10:46:27.289Z,95.47
2022-12-26T10:48:54.804Z,94.60
2022-12-26T10:51:21.846Z,93.95
2022-12-26T10:53:51.704Z,93.52
2022-12-26T10:56:21.830Z,92.86
2022-12-26T10:59:02.996Z,92.37
2022-12-26T11:01:30.118Z,92.09
2022-12-26T11:04:01.682Z,91.99
2022-12-26T11:06:40.128Z,91.72
2022-12-26T11:09:35.344Z,91.19
2022-12-26T11:12:02.821Z,90.95
2022-12-26T11:14:33.702Z,90.53
2022-12-26T11:17:06.824Z,90.38
2022-12-26T11:19:37.886Z,90.22
2022-12-26T11:22:28.637Z,90.24
2022-12-26T11:25:14.786Z,89.21
2022-12-26T11:27:57.187Z,88.70
2022-12-26T11:30:24.266Z,88.51
2022-12-26T11:33:05.894Z,88.39
2022-12-26T11:35:38.049Z,88.20
2022-12-26T11:38:33.368Z,87.91
2022-12-26T11:41:30.206Z,87.75
2022-12-26T11:44:21.598Z,87.07
2022-12-26T11:46:56.391Z,86.63
2022-12-26T11:49:29.515Z,86.46
2022-12-26T11:51:59.747Z,86.58
2022-12-26T11:54:46.918Z,86.72
2022-12-26T11:57:26.712Z,86.78
2022-12-26T12:00:05.038Z,86.21
2022-12-26T12:02:41.153Z,85.12
2022-12-26T12:05:35.269Z,84.73
2022-12-26T12:08:02.296Z,84.50
2022-12-26T12:10:48.240Z,83.31
2022-12-26T12:13:34.275Z,83.12
2022-12-26T12:16:22.778Z,82.43
2022-12-26T12:19:14.546Z,82.12
2022-12-26T12:21:53.031Z,81.51
2022-12-26T12:24:35.329Z,81.71
2022-12-26T12:27:22.435Z,82.05
2022-12-26T12:30:08.290Z,82.06
2022-12-26T12:33:10.383Z,81.90
2022-12-26T12:35:56.658Z,82.60
2022-12-26T12:38:32.273Z,82.06
2022-12-26T12:41:31.551Z,82.37
2022-12-26T12:44:07.272Z,81.66
2022-12-26T12:47:13.096Z,80.75
2022-12-26T12:50:00.012Z,80.71
2022-12-26T12:53:05.069Z,80.83
2022-12-26T12:55:42.768Z,81.20
2022-12-26T12:58:28.132Z,80.66
2022-12-26T13:01:04.817Z,81.22
2022-12-26T13:03:51.140Z,81.25
2022-12-26T13:06:26.279Z,81.18
2022-12-26T13:09:02.602Z,81.22
2022-12-26T13:11:38.044Z,81.48
2022-12-26T13:14:26.162Z,82.09
2022-12-26T13:17:18.192Z,82.06
2022-12-26T13:19:52.264Z,81.99
2022-12-26T13:23:00.523Z,81.71
2022-12-26T13:25:35.500Z,81.35
2022-12-26T13:28:08.831Z,81.69
2022-12-26T13:30:37.539Z,81.87
2022-12-26T13:33:05.979Z,82.42
2022-12-26T13:35:55.907Z,82.69
2022-12-26T13:38:47.966Z,82.87
2022-12-26T13:42:35.601Z,82.94
2022-12-26T13:45:36.773Z,83.33
2022-12-26T13:48:29.347Z,83.68
2022-12-26T13:51:01.117Z,83.79
2022-12-26T13:53:30.725Z,83.92
2022-12-26T13:56:17.286Z,84.13
2022-12-26T13:59:00.033Z,84.27
2022-12-26T14:01:45.794Z,84.55
2022-12-26T14:04:40.030Z,84.89
2022-12-26T14:07:22.276Z,84.99
2022-12-26T14:10:03.637Z,85.16
2022-12-26T14:12:58.955Z,85.17
2022-12-26T14:15:40.468Z,85.47
2022-12-26T14:18:19.722Z,85.82
2022-12-26T14:21:01.480Z,85.76
2022-12-26T14:23:36.314Z,86.05
2022-12-26T14:26:34.451Z,86.06
2022-12-26T14:29:10.171Z,86.16
2022-12-26T14:31:55.223Z,86.28
2022-12-26T14:34:56.303Z,86.14
2022-12-26T14:38:08.468Z,86.60
2022-12-26T14:40:37.805Z,86.35
2022-12-26T14:43:33.944Z,86.49
2022-12-26T14:46:03.949Z,86.65
2022-12-26T14:48:30.911Z,86.80
2022-12-26T14:51:03.958Z,86.98
2022-12-26T14:53:31.044Z,86.92
2022-12-26T14:56:00.323Z,87.22
2022-12-26T14:58:39.404Z,87.25
2022-12-26T15:01:09.964Z,87.29
2022-12-26T15:04:43.707Z,87.14
2022-12-26T15:07:25.088Z,87.23
2022-12-26T15:10:36.590Z,87.24
2022-12-26T15:13:22.229Z,87.25
2022-12-26T15:16:05.698Z,87.29
2022-12-26T15:19:14.777Z,87.43
2022-12-26T15:22:08.047Z,87.47
2022-12-26T15:28:22.741Z,87.73
2022-12-26T15:31:19.164Z,87.75
2022-12-26T15:34:40.789Z,87.61
2022-12-26T15:37:16.785Z,87.52
2022-12-26T15:39:51.731Z,87.45
2022-12-26T15:42:37.501Z,87.35
2022-12-26T15:45:45.969Z,87.36
2022-12-26T15:48:38.013Z,87.36
2022-12-26T15:51:14.315Z,87.42
2022-12-26T15:54:21.784Z,87.23
2022-12-26T15:57:03.842Z,87.15
2022-12-26T15:59:30.914Z,87.25
2022-12-26T16:01:58.495Z,87.09
2022-12-26T16:04:51.372Z,87.17
2022-12-26T16:07:49.539Z,87.15
2022-12-26T16:10:25.622Z,87.13
2022-12-26T16:13:22.474Z,87.10
2022-12-26T16:15:55.630Z,87.14
2022-12-26T16:18:31.301Z,87.18
2022-12-26T16:21:22.904Z,87.34
2022-12-26T16:23:53.498Z,87.31
2022-12-26T16:26:33.585Z,87.43
2022-12-26T16:29:00.835Z,87.51
2022-12-26T16:31:32.698Z,87.46
2022-12-26T16:34:00.787Z,87.61
2022-12-26T16:36:32.195Z,87.47
2022-12-26T16:38:59.189Z,87.64
2022-12-26T16:41:28.931Z,87.93
2022-12-26T16:44:12.741Z,88.06
2022-12-26T16:46:39.787Z,88.30
2022-12-26T16:49:10.473Z,88.16
2022-12-26T16:51:48.315Z,88.62
2022-12-26T16:54:19.858Z,88.62
2022-12-26T16:57:02.044Z,88.43
2022-12-26T16:59:56.560Z,88.57
2022-12-26T17:02:42.052Z,88.56
2022-12-26T17:05:27.773Z,88.52
2022-12-26T17:08:00.223Z,88.56
2022-12-26T17:10:34.516Z,88.54
2022-12-26T17:13:05.035Z,88.54
2022-12-26T17:15:36.338Z,88.65
2022-12-26T17:18:28.191Z,88.74
2022-12-26T17:21:15.641Z,88.99
2022-12-26T17:23:43.545Z,89.08
2022-12-26T17:26:18.846Z,89.34
2022-12-26T17:28:45.811Z,89.62
2022-12-26T17:31:43.414Z,89.92
2022-12-26T17:34:20.087Z,90.27
2022-12-26T17:37:18.247Z,90.60
2022-12-26T17:39:34.116Z,90.95
2022-12-26T17:42:01.822Z,91.42
2022-12-26T17:44:45.344Z,91.68
2022-12-26T17:47:15.407Z,92.38
2022-12-26T17:49:42.370Z,92.99
2022-12-26T17:52:13.845Z,93.69
2022-12-26T17:54:41.780Z,94.35
2022-12-26T17:57:28.284Z,94.89
2022-12-26T17:59:56.704Z,95.48
2022-12-26T18:02:23.931Z,96.01
2022-12-26T18:04:51.150Z,96.55
2022-12-26T18:07:27.125Z,96.93
2022-12-26T18:10:50.104Z,97.49
2022-12-26T18:13:17.321Z,97.94
2022-12-26T18:15:44.565Z,98.30
2022-12-26T18:18:30.804Z,98.77
2022-12-26T18:20:57.807Z,99.19
2022-12-26T18:23:24.863Z,99.85
2022-12-26T18:25:54.842Z,100.00
2022-12-26T18:28:21.951Z,100.00
2022-12-26T18:30:49.356Z,100.00
2022-12-26T18:33:16.301Z,100.00
2022-12-26T18:35:44.900Z,100.00
2022-12-26T18:38:19.511Z,100.00
2022-12-26T18:40:49.934Z,100.00
2022-12-26T18:43:17.730Z,100.00
2022-12-26T18:45:45.110Z,100.00
2022-12-26T18:48:15.011Z,100.00
2022-12-26T18:50:43.599Z,100.00
2022-12-26T18:53:12.051Z,100.00
2022-12-26T18:55:40.156Z,100.00
2022-12-26T18:58:07.201Z,100.00
2022-12-26T19:00:35.568Z,100.00
2022-12-26T19:03:03.270Z,100.00
2022-12-26T19:05:33.521Z,100.00
2022-12-26T19:08:02.706Z,100.00
2022-12-26T19:10:34.075Z,100.00
2022-12-26T19:13:10.819Z,100.00
2022-12-26T19:15:39.639Z,100.00
2022-12-26T19:18:06.707Z,100.00
2022-12-26T19:20:36.555Z,100.00
2022-12-26T19:23:09.942Z,100.00
2022-12-26T19:25:43.793Z,100.00
2022-12-26T19:28:14.360Z,100.00
2022-12-26T19:30:50.434Z,100.00
2022-12-26T19:33:18.324Z,100.00
2022-12-26T19:35:45.435Z,100.00
2022-12-26T19:38:13.218Z,100.00
2022-12-26T19:40:44.109Z,100.00
2022-12-26T19:43:14.169Z,100.00
2022-12-26T19:45:44.606Z,100.00
2022-12-26T19:48:12.636Z,100.00
2022-12-26T19:50:44.148Z,100.00
2022-12-26T19:53:16.877Z,100.00
2022-12-26T19:55:48.498Z,100.00
2022-12-26T19:58:19.693Z,100.00
2022-12-26T20:00:49.258Z,100.00
2022-12-26T20:03:19.681Z,100.00
2022-12-26T20:05:50.325Z,100.00
2022-12-26T20:08:21.272Z,100.00
2022-12-26T20:10:55.837Z,100.00
2022-12-26T20:13:30.126Z,100.00
2022-12-26T20:16:04.614Z,100.00
2022-12-26T20:18:34.421Z,100.00
2022-12-26T20:21:05.142Z,100.00
2022-12-26T20:23:36.815Z,100.00
2022-12-26T20:26:09.447Z,100.00
2022-12-26T20:28:38.082Z,100.00
2022-12-26T20:31:13.315Z,100.00
2022-12-26T20:33:50.949Z,100.00
2022-12-26T20:36:22.010Z,100.00
2022-12-26T20:38:56.143Z,100.00
2022-12-26T20:41:30.227Z,100.00
2022-12-26T20:44:02.417Z,100.00
2022-12-26T20:46:32.576Z,100.00
2022-12-26T20:49:04.251Z,100.00
2022-12-26T20:51:37.691Z,100.00
2022-12-26T20:54:10.220Z,100.00
2022-12-26T20:56:38.998Z,100.00
2022-12-26T20:59:10.180Z,100.00
2022-12-26T21:01:40.107Z,100.00
2022-12-26T21:04:19.940Z,100.00
2022-12-26T21:06:49.135Z,100.00
2022-12-26T21:09:16.881Z,100.00
2022-12-26T21:11:45.306Z,100.00
2022-12-26T21:14:20.483Z,100.00
2022-12-26T21:16:53.799Z,100.00
2022-12-26T21:19:23.123Z,100.00
2022-12-26T21:21:52.926Z,100.00
2022-12-26T21:24:26.406Z,100.00
2022-12-26T21:26:54.885Z,100.00
2022-12-26T21:29:25.791Z,100.00
2022-12-26T21:31:55.052Z,100.00
2022-12-26T21:34:28.865Z,100.00
2022-12-26T21:37:25.707Z,100.00
2022-12-26T21:40:15.474Z,100.00
2022-12-26T21:42:50.348Z,100.00
2022-12-26T21:45:31.168Z,100.00
2022-12-26T21:48:16.879Z,100.00
2022-12-26T21:50:44.553Z,99.93
2022-12-26T21:53:17.780Z,99.94
2022-12-26T21:55:52.538Z,99.92
2022-12-26T21:58:33.689Z,99.72
2022-12-26T22:01:23.507Z,99.58
2022-12-26T22:04:10.530Z,99.69
2022-12-26T22:06:39.961Z,99.44
2022-12-26T22:09:08.403Z,99.42
2022-12-26T22:11:54.250Z,99.50
2022-12-26T22:14:21.713Z,99.31
2022-12-26T22:16:53.552Z,99.30
2022-12-26T22:19:24.033Z,99.39
2022-12-26T22:21:54.601Z,99.33
2022-12-26T22:24:24.949Z,99.65
2022-12-26T22:26:52.216Z,99.69
2022-12-26T22:29:19.534Z,99.59
2022-12-26T22:31:46.522Z,99.44
2022-12-26T22:34:16.186Z,99.69
2022-12-26T22:36:43.413Z,99.77
2022-12-26T22:39:17.779Z,99.89
2022-12-26T22:41:46.571Z,99.91
2022-12-26T22:44:14.954Z,99.98
2022-12-26T22:46:42.506Z,100.00
2022-12-26T22:49:09.855Z,100.00
2022-12-26T22:51:37.185Z,100.00
2022-12-26T22:54:04.314Z,100.00
2022-12-26T22:56:32.721Z,100.00
2022-12-26T22:59:02.664Z,100.00
2022-12-26T23:01:32.716Z,100.00
2022-12-26T23:04:01.028Z,100.00
2022-12-26T23:06:31.289Z,100.00
2022-12-26T23:09:01.086Z,100.00
2022-12-26T23:11:34.679Z,100.00
2022-12-26T23:14:55.569Z,100.00
2022-12-26T23:17:45.042Z,100.00
2022-12-26T23:20:32.642Z,100.00
2022-12-26T23:23:02.098Z,100.00
2022-12-26T23:25:30.072Z,100.00
2022-12-26T23:28:19.018Z,100.00
2022-12-26T23:30:46.098Z,100.00
2022-12-26T23:33:16.302Z,100.00
2022-12-26T23:35:43.954Z,100.00
2022-12-26T23:38:10.997Z,100.00
2022-12-26T23:40:38.097Z,100.00
2022-12-26T23:43:07.087Z,100.00
2022-12-26T23:45:34.153Z,100.00
2022-12-26T23:48:01.171Z,100.00
2022-12-26T23:50:28.421Z,100.00
2022-12-26T23:52:55.429Z,100.00
2022-12-26T23:55:22.445Z,100.00
2022-12-26T23:57:50.166Z,100.00
